SIK weather

Sikeston Memorial Municipal Airport
Sikeston, Missouri, United States

Public forecast

Using degrees Fahrenheit for public forecast. Weather courtesy of forecast.io.

METAR (pilot weather report)

Retrieved 2019/08/17 12:35 UTC (17 minutes ago):

KSIK 171235Z AUTO 21005KT 10SM CLR 25/23 A2996 RMK AO2

TAF (pilot weather forecast)

Closest forecast is Cape Girardeau Regional Airport, 19.6 nm (36.3 km) N. Retrieved 2019/08/17 12:45 UTC (7 minutes ago):

TAF KCGI 171140Z 1712/1812 00000KT P6SM SCT060 BKN150 FM171400 24006KT P6SM SCT060 BKN250 FM171800 18010KT P6SM FEW070 FEW250 FM180100 VRB04KT P6SM FEW080 FEW250